Terminal Aerodrome Forecast
Issued by NWS Grand Forks, ND

Home | Current Version | Previous Version | Text Only | Print | Product List | Glossary On
Versions: 1 2 3 4 5 6 7 8 9 10 11 12 13 14 15 16 17 18 19 20
000
FTUS43 KFGF 210600 AAA
TAFFAR
TAF AMD
KFAR 210640Z 2107/2206 13007KT P6SM BKN100
      TEMPO 2107/2111 14007KT P6SM -SHRA BKN070
     FM211100 VRB06KT P6SM VCSH BKN050
     FM211800 VRB05KT P6SM BKN120=

USA.gov is the U.S. government's official web portal to all federal, state and local government web resources and services.